sensor_id;sensor_type;location;lat;lon;timestamp;P1;durP1;ratioP1;P2;durP2;ratioP2
54665;SDS011;40566;50.006;36.180;2023-04-24T00:04:35;23.55;;;10.45;;
54665;SDS011;40566;50.006;36.180;2023-04-24T00:09:40;21.65;;;10.30;;
54665;SDS011;40566;50.006;36.180;2023-04-24T00:14:40;19.25;;;9.48;;
54665;SDS011;40566;50.006;36.180;2023-04-24T00:19:41;20.50;;;10.48;;
54665;SDS011;40566;50.006;36.180;2023-04-24T00:24:42;16.50;;;9.43;;
54665;SDS011;40566;50.006;36.180;2023-04-24T00:29:42;21.67;;;10.02;;
54665;SDS011;40566;50.006;36.180;2023-04-24T00:34:43;18.80;;;9.98;;
54665;SDS011;40566;50.006;36.180;2023-04-24T00:39:43;21.70;;;9.30;;
54665;SDS011;40566;50.006;36.180;2023-04-24T00:44:44;19.65;;;9.07;;
54665;SDS011;40566;50.006;36.180;2023-04-24T00:49:45;16.88;;;8.50;;
54665;SDS011;40566;50.006;36.180;2023-04-24T00:54:46;17.17;;;8.57;;
54665;SDS011;40566;50.006;36.180;2023-04-24T00:59:46;19.40;;;8.45;;
54665;SDS011;40566;50.006;36.180;2023-04-24T01:04:48;18.02;;;9.18;;
54665;SDS011;40566;50.006;36.180;2023-04-24T01:09:50;18.30;;;9.18;;
54665;SDS011;40566;50.006;36.180;2023-04-24T01:14:52;17.45;;;9.35;;
54665;SDS011;40566;50.006;36.180;2023-04-24T01:19:52;21.58;;;10.35;;
54665;SDS011;40566;50.006;36.180;2023-04-24T01:24:53;18.13;;;9.57;;
54665;SDS011;40566;50.006;36.180;2023-04-24T01:29:54;21.48;;;10.15;;
54665;SDS011;40566;50.006;36.180;2023-04-24T01:34:55;11.63;;;5.82;;
54665;SDS011;40566;50.006;36.180;2023-04-24T01:39:56;28.10;;;10.65;;
54665;SDS011;40566;50.006;36.180;2023-04-24T01:44:56;22.33;;;9.73;;
54665;SDS011;40566;50.006;36.180;2023-04-24T01:49:57;18.75;;;9.02;;
54665;SDS011;40566;50.006;36.180;2023-04-24T01:55:05;22.45;;;8.80;;
54665;SDS011;40566;50.006;36.180;2023-04-24T02:00:07;17.25;;;8.52;;
54665;SDS011;40566;50.006;36.180;2023-04-24T02:05:08;19.05;;;8.40;;
54665;SDS011;40566;50.006;36.180;2023-04-24T02:10:10;16.88;;;8.27;;
54665;SDS011;40566;50.006;36.180;2023-04-24T02:15:10;19.25;;;8.50;;
54665;SDS011;40566;50.006;36.180;2023-04-24T02:20:12;17.35;;;8.13;;
54665;SDS011;40566;50.006;36.180;2023-04-24T02:25:12;19.20;;;8.30;;
54665;SDS011;40566;50.006;36.180;2023-04-24T02:30:13;18.15;;;7.88;;
54665;SDS011;40566;50.006;36.180;2023-04-24T02:35:14;18.38;;;7.80;;
54665;SDS011;40566;50.006;36.180;2023-04-24T02:40:15;16.65;;;7.82;;
54665;SDS011;40566;50.006;36.180;2023-04-24T02:45:15;16.25;;;7.30;;
54665;SDS011;40566;50.006;36.180;2023-04-24T02:50:16;16.48;;;7.57;;
54665;SDS011;40566;50.006;36.180;2023-04-24T02:55:16;17.15;;;7.75;;
54665;SDS011;40566;50.006;36.180;2023-04-24T03:00:17;12.40;;;4.30;;
54665;SDS011;40566;50.006;36.180;2023-04-24T03:05:18;16.33;;;7.43;;
54665;SDS011;40566;50.006;36.180;2023-04-24T03:10:18;17.60;;;7.07;;
54665;SDS011;40566;50.006;36.180;2023-04-24T03:15:19;12.90;;;6.57;;
54665;SDS011;40566;50.006;36.180;2023-04-24T03:20:20;17.30;;;7.18;;
54665;SDS011;40566;50.006;36.180;2023-04-24T03:25:21;13.85;;;7.18;;
54665;SDS011;40566;50.006;36.180;2023-04-24T03:30:21;13.13;;;6.00;;
54665;SDS011;40566;50.006;36.180;2023-04-24T03:35:22;12.48;;;5.57;;
54665;SDS011;40566;50.006;36.180;2023-04-24T03:40:23;13.93;;;6.00;;
54665;SDS011;40566;50.006;36.180;2023-04-24T03:45:23;13.38;;;6.95;;
54665;SDS011;40566;50.006;36.180;2023-04-24T03:50:24;15.95;;;5.68;;
54665;SDS011;40566;50.006;36.180;2023-04-24T03:55:26;16.08;;;5.40;;
54665;SDS011;40566;50.006;36.180;2023-04-24T04:00:27;14.27;;;5.97;;
54665;SDS011;40566;50.006;36.180;2023-04-24T04:05:28;13.85;;;5.57;;
54665;SDS011;40566;50.006;36.180;2023-04-24T04:10:28;12.52;;;5.35;;
54665;SDS011;40566;50.006;36.180;2023-04-24T04:15:29;12.95;;;6.03;;
54665;SDS011;40566;50.006;36.180;2023-04-24T04:20:29;12.38;;;6.00;;
54665;SDS011;40566;50.006;36.180;2023-04-24T04:25:30;14.50;;;5.43;;
54665;SDS011;40566;50.006;36.180;2023-04-24T04:30:31;10.68;;;5.90;;
54665;SDS011;40566;50.006;36.180;2023-04-24T04:35:32;12.32;;;5.97;;
54665;SDS011;40566;50.006;36.180;2023-04-24T04:40:32;12.25;;;5.70;;
54665;SDS011;40566;50.006;36.180;2023-04-24T04:45:33;10.02;;;5.03;;
54665;SDS011;40566;50.006;36.180;2023-04-24T04:50:35;16.10;;;5.88;;
54665;SDS011;40566;50.006;36.180;2023-04-24T04:55:36;13.57;;;5.65;;
54665;SDS011;40566;50.006;36.180;2023-04-24T05:00:37;17.15;;;5.63;;
54665;SDS011;40566;50.006;36.180;2023-04-24T05:05:37;13.18;;;6.07;;
54665;SDS011;40566;50.006;36.180;2023-04-24T05:10:40;17.30;;;6.65;;
54665;SDS011;40566;50.006;36.180;2023-04-24T05:15:41;21.00;;;7.60;;
54665;SDS011;40566;50.006;36.180;2023-04-24T05:20:41;14.30;;;6.45;;
54665;SDS011;40566;50.006;36.180;2023-04-24T05:25:44;15.90;;;6.72;;
54665;SDS011;40566;50.006;36.180;2023-04-24T05:30:44;17.15;;;6.32;;
54665;SDS011;40566;50.006;36.180;2023-04-24T05:35:45;18.10;;;6.18;;
54665;SDS011;40566;50.006;36.180;2023-04-24T05:40:46;19.30;;;6.00;;
54665;SDS011;40566;50.006;36.180;2023-04-24T05:45:47;20.83;;;7.03;;
54665;SDS011;40566;50.006;36.180;2023-04-24T05:50:48;16.23;;;6.40;;
54665;SDS011;40566;50.006;36.180;2023-04-24T05:55:48;15.15;;;6.50;;
54665;SDS011;40566;50.006;36.180;2023-04-24T06:00:49;17.23;;;6.80;;
54665;SDS011;40566;50.006;36.180;2023-04-24T06:05:50;13.57;;;4.55;;
54665;SDS011;40566;50.006;36.180;2023-04-24T06:10:51;12.10;;;4.18;;
54665;SDS011;40566;50.006;36.180;2023-04-24T06:15:52;5.53;;;2.22;;
54665;SDS011;40566;50.006;36.180;2023-04-24T06:20:53;9.85;;;2.85;;
54665;SDS011;40566;50.006;36.180;2023-04-24T06:25:53;13.32;;;2.50;;
54665;SDS011;40566;50.006;36.180;2023-04-24T06:30:54;8.50;;;2.40;;
54665;SDS011;40566;50.006;36.180;2023-04-24T06:35:55;9.55;;;2.50;;
54665;SDS011;40566;50.006;36.180;2023-04-24T06:40:55;9.50;;;2.60;;
54665;SDS011;40566;50.006;36.180;2023-04-24T06:45:56;8.85;;;2.58;;
54665;SDS011;40566;50.006;36.180;2023-04-24T06:50:58;10.05;;;2.30;;
54665;SDS011;40566;50.006;36.180;2023-04-24T06:55:58;11.30;;;2.17;;
54665;SDS011;40566;50.006;36.180;2023-04-24T07:00:59;10.40;;;2.92;;
54665;SDS011;40566;50.006;36.180;2023-04-24T07:06:00;8.40;;;2.30;;
54665;SDS011;40566;50.006;36.180;2023-04-24T07:11:00;6.60;;;2.55;;
54665;SDS011;40566;50.006;36.180;2023-04-24T07:16:01;9.38;;;2.30;;
54665;SDS011;40566;50.006;36.180;2023-04-24T07:21:02;7.35;;;2.22;;
54665;SDS011;40566;50.006;36.180;2023-04-24T07:26:03;8.88;;;2.10;;
54665;SDS011;40566;50.006;36.180;2023-04-24T07:31:04;8.30;;;1.98;;
54665;SDS011;40566;50.006;36.180;2023-04-24T07:36:05;6.72;;;1.98;;
54665;SDS011;40566;50.006;36.180;2023-04-24T07:41:05;13.82;;;2.10;;
54665;SDS011;40566;50.006;36.180;2023-04-24T07:46:06;16.75;;;6.00;;
54665;SDS011;40566;50.006;36.180;2023-04-24T07:51:08;9.88;;;2.45;;
54665;SDS011;40566;50.006;36.180;2023-04-24T07:56:11;7.00;;;1.90;;
54665;SDS011;40566;50.006;36.180;2023-04-24T08:01:11;7.53;;;2.55;;
54665;SDS011;40566;50.006;36.180;2023-04-24T08:06:12;9.35;;;2.17;;
54665;SDS011;40566;50.006;36.180;2023-04-24T08:16:29;4.82;;;1.73;;
54665;SDS011;40566;50.006;36.180;2023-04-24T08:21:29;8.23;;;1.90;;
54665;SDS011;40566;50.006;36.180;2023-04-24T08:26:30;6.22;;;1.80;;
54665;SDS011;40566;50.006;36.180;2023-04-24T08:31:32;9.00;;;1.88;;
54665;SDS011;40566;50.006;36.180;2023-04-24T08:36:32;6.43;;;1.65;;
54665;SDS011;40566;50.006;36.180;2023-04-24T08:41:34;6.03;;;1.60;;
54665;SDS011;40566;50.006;36.180;2023-04-24T08:46:34;6.72;;;1.58;;
54665;SDS011;40566;50.006;36.180;2023-04-24T08:51:36;6.25;;;1.42;;
54665;SDS011;40566;50.006;36.180;2023-04-24T08:56:38;8.35;;;1.70;;
54665;SDS011;40566;50.006;36.180;2023-04-24T09:01:40;7.07;;;1.80;;
54665;SDS011;40566;50.006;36.180;2023-04-24T09:06:41;5.13;;;1.90;;
54665;SDS011;40566;50.006;36.180;2023-04-24T09:11:42;5.15;;;1.70;;
54665;SDS011;40566;50.006;36.180;2023-04-24T09:16:43;5.38;;;1.75;;
54665;SDS011;40566;50.006;36.180;2023-04-24T09:21:45;6.63;;;2.58;;
54665;SDS011;40566;50.006;36.180;2023-04-24T09:26:46;4.45;;;1.40;;
54665;SDS011;40566;50.006;36.180;2023-04-24T09:31:47;6.85;;;1.35;;
54665;SDS011;40566;50.006;36.180;2023-04-24T09:36:47;3.50;;;1.30;;
54665;SDS011;40566;50.006;36.180;2023-04-24T09:41:52;4.13;;;1.77;;
54665;SDS011;40566;50.006;36.180;2023-04-24T09:46:57;2.75;;;1.10;;
54665;SDS011;40566;50.006;36.180;2023-04-24T09:52:06;4.60;;;1.23;;
54665;SDS011;40566;50.006;36.180;2023-04-24T09:57:07;2.58;;;1.10;;
54665;SDS011;40566;50.006;36.180;2023-04-24T10:02:19;4.57;;;1.35;;
54665;SDS011;40566;50.006;36.180;2023-04-24T10:07:20;7.78;;;1.30;;
54665;SDS011;40566;50.006;36.180;2023-04-24T10:12:21;3.67;;;1.20;;
54665;SDS011;40566;50.006;36.180;2023-04-24T10:17:23;5.55;;;1.40;;
54665;SDS011;40566;50.006;36.180;2023-04-24T10:22:25;4.50;;;1.25;;
54665;SDS011;40566;50.006;36.180;2023-04-24T10:27:27;4.47;;;1.20;;
54665;SDS011;40566;50.006;36.180;2023-04-24T10:32:29;3.40;;;1.30;;
54665;SDS011;40566;50.006;36.180;2023-04-24T10:37:33;4.10;;;1.20;;
54665;SDS011;40566;50.006;36.180;2023-04-24T10:42:40;4.55;;;1.25;;
54665;SDS011;40566;50.006;36.180;2023-04-24T10:47:42;2.30;;;1.00;;
54665;SDS011;40566;50.006;36.180;2023-04-24T10:52:50;5.20;;;1.40;;
54665;SDS011;40566;50.006;36.180;2023-04-24T10:58:02;6.03;;;1.30;;
54665;SDS011;40566;50.006;36.180;2023-04-24T11:03:22;3.88;;;1.10;;
54665;SDS011;40566;50.006;36.180;2023-04-24T11:29:43;5.60;;;1.48;;
54665;SDS011;40566;50.006;36.180;2023-04-24T11:34:47;3.05;;;1.00;;
54665;SDS011;40566;50.006;36.180;2023-04-24T11:39:53;3.58;;;1.30;;
54665;SDS011;40566;50.006;36.180;2023-04-24T11:44:58;7.07;;;1.42;;
54665;SDS011;40566;50.006;36.180;2023-04-24T11:50:00;7.05;;;1.30;;
54665;SDS011;40566;50.006;36.180;2023-04-24T11:55:01;3.42;;;1.40;;
54665;SDS011;40566;50.006;36.180;2023-04-24T12:00:02;3.55;;;1.10;;
54665;SDS011;40566;50.006;36.180;2023-04-24T12:05:05;3.95;;;1.30;;
54665;SDS011;40566;50.006;36.180;2023-04-24T12:10:06;4.18;;;1.52;;
54665;SDS011;40566;50.006;36.180;2023-04-24T12:15:07;3.28;;;1.52;;
54665;SDS011;40566;50.006;36.180;2023-04-24T12:20:09;4.90;;;1.50;;
54665;SDS011;40566;50.006;36.180;2023-04-24T12:25:10;4.53;;;1.02;;
54665;SDS011;40566;50.006;36.180;2023-04-24T12:30:12;5.18;;;1.30;;
54665;SDS011;40566;50.006;36.180;2023-04-24T12:35:24;2.03;;;0.95;;
54665;SDS011;40566;50.006;36.180;2023-04-24T12:40:27;2.50;;;0.90;;
54665;SDS011;40566;50.006;36.180;2023-04-24T12:45:29;4.43;;;1.15;;
54665;SDS011;40566;50.006;36.180;2023-04-24T12:50:29;2.72;;;1.00;;
54665;SDS011;40566;50.006;36.180;2023-04-24T12:55:30;1.98;;;1.00;;
54665;SDS011;40566;50.006;36.180;2023-04-24T13:00:30;3.08;;;1.45;;
54665;SDS011;40566;50.006;36.180;2023-04-24T13:05:31;4.85;;;1.20;;
54665;SDS011;40566;50.006;36.180;2023-04-24T13:10:32;6.03;;;1.38;;
54665;SDS011;40566;50.006;36.180;2023-04-24T13:15:32;6.82;;;2.58;;
54665;SDS011;40566;50.006;36.180;2023-04-24T13:20:33;5.38;;;1.80;;
54665;SDS011;40566;50.006;36.180;2023-04-24T13:25:36;2.50;;;1.13;;
54665;SDS011;40566;50.006;36.180;2023-04-24T13:30:37;16.00;;;4.35;;
54665;SDS011;40566;50.006;36.180;2023-04-24T13:35:38;5.50;;;1.88;;
54665;SDS011;40566;50.006;36.180;2023-04-24T13:40:38;14.30;;;3.80;;
54665;SDS011;40566;50.006;36.180;2023-04-24T13:45:39;1.95;;;1.13;;
54665;SDS011;40566;50.006;36.180;2023-04-24T13:50:40;6.65;;;1.40;;
54665;SDS011;40566;50.006;36.180;2023-04-24T13:55:41;5.85;;;1.17;;
54665;SDS011;40566;50.006;36.180;2023-04-24T14:00:42;9.30;;;1.48;;
54665;SDS011;40566;50.006;36.180;2023-04-24T14:05:42;4.63;;;1.30;;
54665;SDS011;40566;50.006;36.180;2023-04-24T14:10:43;1.70;;;1.00;;
54665;SDS011;40566;50.006;36.180;2023-04-24T14:15:43;4.15;;;1.10;;
54665;SDS011;40566;50.006;36.180;2023-04-24T14:20:44;4.80;;;1.10;;
54665;SDS011;40566;50.006;36.180;2023-04-24T14:25:45;5.72;;;1.10;;
54665;SDS011;40566;50.006;36.180;2023-04-24T14:30:46;4.50;;;1.30;;
54665;SDS011;40566;50.006;36.180;2023-04-24T14:35:47;3.10;;;1.10;;
54665;SDS011;40566;50.006;36.180;2023-04-24T14:40:48;3.80;;;1.13;;
54665;SDS011;40566;50.006;36.180;2023-04-24T14:45:48;4.45;;;1.10;;
54665;SDS011;40566;50.006;36.180;2023-04-24T14:50:49;5.75;;;1.67;;
54665;SDS011;40566;50.006;36.180;2023-04-24T14:55:50;5.70;;;1.48;;
54665;SDS011;40566;50.006;36.180;2023-04-24T15:00:51;4.43;;;1.33;;
54665;SDS011;40566;50.006;36.180;2023-04-24T15:05:54;4.20;;;1.60;;
54665;SDS011;40566;50.006;36.180;2023-04-24T15:10:55;4.80;;;1.33;;
54665;SDS011;40566;50.006;36.180;2023-04-24T15:15:55;3.42;;;1.30;;
54665;SDS011;40566;50.006;36.180;2023-04-24T15:20:56;4.47;;;1.50;;
54665;SDS011;40566;50.006;36.180;2023-04-24T15:25:57;5.95;;;1.70;;
54665;SDS011;40566;50.006;36.180;2023-04-24T15:30:57;7.18;;;2.05;;
54665;SDS011;40566;50.006;36.180;2023-04-24T15:35:58;6.38;;;1.50;;
54665;SDS011;40566;50.006;36.180;2023-04-24T15:40:59;6.85;;;2.67;;
54665;SDS011;40566;50.006;36.180;2023-04-24T15:45:59;4.68;;;1.85;;
54665;SDS011;40566;50.006;36.180;2023-04-24T15:51:00;6.93;;;2.00;;
54665;SDS011;40566;50.006;36.180;2023-04-24T15:56:01;8.98;;;3.05;;
54665;SDS011;40566;50.006;36.180;2023-04-24T16:01:02;7.72;;;2.70;;
54665;SDS011;40566;50.006;36.180;2023-04-24T16:06:03;8.35;;;3.40;;
54665;SDS011;40566;50.006;36.180;2023-04-24T16:11:04;10.60;;;4.10;;
54665;SDS011;40566;50.006;36.180;2023-04-24T16:16:04;8.52;;;3.63;;
54665;SDS011;40566;50.006;36.180;2023-04-24T16:21:05;8.10;;;3.47;;
54665;SDS011;40566;50.006;36.180;2023-04-24T16:26:08;11.45;;;4.20;;
54665;SDS011;40566;50.006;36.180;2023-04-24T16:31:08;14.85;;;5.47;;
54665;SDS011;40566;50.006;36.180;2023-04-24T16:36:09;15.65;;;5.45;;
54665;SDS011;40566;50.006;36.180;2023-04-24T16:41:12;15.73;;;5.93;;
54665;SDS011;40566;50.006;36.180;2023-04-24T16:46:13;16.73;;;8.00;;
54665;SDS011;40566;50.006;36.180;2023-04-24T16:51:13;18.65;;;7.93;;
54665;SDS011;40566;50.006;36.180;2023-04-24T16:56:14;18.77;;;9.55;;
54665;SDS011;40566;50.006;36.180;2023-04-24T17:01:15;33.03;;;13.65;;
54665;SDS011;40566;50.006;36.180;2023-04-24T17:06:15;34.13;;;15.73;;
54665;SDS011;40566;50.006;36.180;2023-04-24T17:11:16;25.58;;;11.57;;
54665;SDS011;40566;50.006;36.180;2023-04-24T17:16:16;26.38;;;12.30;;
54665;SDS011;40566;50.006;36.180;2023-04-24T17:21:17;31.13;;;14.15;;
54665;SDS011;40566;50.006;36.180;2023-04-24T17:26:18;24.70;;;12.43;;
54665;SDS011;40566;50.006;36.180;2023-04-24T17:31:19;19.42;;;9.95;;
54665;SDS011;40566;50.006;36.180;2023-04-24T17:36:20;22.08;;;11.13;;
54665;SDS011;40566;50.006;36.180;2023-04-24T17:41:21;24.35;;;11.88;;
54665;SDS011;40566;50.006;36.180;2023-04-24T17:46:22;28.30;;;13.57;;
54665;SDS011;40566;50.006;36.180;2023-04-24T17:51:22;26.45;;;12.10;;
54665;SDS011;40566;50.006;36.180;2023-04-24T17:56:23;18.27;;;8.88;;
54665;SDS011;40566;50.006;36.180;2023-04-24T18:01:24;22.13;;;9.70;;
54665;SDS011;40566;50.006;36.180;2023-04-24T18:06:25;21.23;;;10.50;;
54665;SDS011;40566;50.006;36.180;2023-04-24T18:11:27;22.23;;;11.05;;
54665;SDS011;40566;50.006;36.180;2023-04-24T18:16:28;24.13;;;12.45;;
54665;SDS011;40566;50.006;36.180;2023-04-24T18:21:28;25.35;;;14.00;;
54665;SDS011;40566;50.006;36.180;2023-04-24T18:26:30;23.85;;;13.07;;
54665;SDS011;40566;50.006;36.180;2023-04-24T18:31:31;26.83;;;14.07;;
54665;SDS011;40566;50.006;36.180;2023-04-24T18:36:31;25.73;;;13.77;;
54665;SDS011;40566;50.006;36.180;2023-04-24T18:41:32;32.55;;;16.85;;
54665;SDS011;40566;50.006;36.180;2023-04-24T18:46:34;32.38;;;15.13;;
54665;SDS011;40566;50.006;36.180;2023-04-24T18:51:37;38.28;;;19.33;;
54665;SDS011;40566;50.006;36.180;2023-04-24T18:56:38;53.38;;;27.60;;
54665;SDS011;40566;50.006;36.180;2023-04-24T19:01:38;51.72;;;26.88;;
54665;SDS011;40566;50.006;36.180;2023-04-24T19:06:39;40.85;;;22.70;;
54665;SDS011;40566;50.006;36.180;2023-04-24T19:11:40;42.97;;;22.23;;
54665;SDS011;40566;50.006;36.180;2023-04-24T19:16:41;36.22;;;18.75;;
54665;SDS011;40566;50.006;36.180;2023-04-24T19:21:43;33.63;;;17.10;;
54665;SDS011;40566;50.006;36.180;2023-04-24T19:26:44;32.92;;;15.27;;
54665;SDS011;40566;50.006;36.180;2023-04-24T19:31:45;26.73;;;14.77;;
54665;SDS011;40566;50.006;36.180;2023-04-24T19:36:45;31.17;;;15.13;;
54665;SDS011;40566;50.006;36.180;2023-04-24T19:41:46;29.33;;;14.80;;
54665;SDS011;40566;50.006;36.180;2023-04-24T19:46:47;31.58;;;15.40;;
54665;SDS011;40566;50.006;36.180;2023-04-24T19:51:47;25.77;;;14.38;;
54665;SDS011;40566;50.006;36.180;2023-04-24T19:56:48;30.65;;;15.00;;
54665;SDS011;40566;50.006;36.180;2023-04-24T20:01:48;26.58;;;14.02;;
54665;SDS011;40566;50.006;36.180;2023-04-24T20:06:50;32.10;;;14.50;;
54665;SDS011;40566;50.006;36.180;2023-04-24T20:11:51;28.58;;;14.10;;
54665;SDS011;40566;50.006;36.180;2023-04-24T20:16:52;27.58;;;12.98;;
54665;SDS011;40566;50.006;36.180;2023-04-24T20:21:54;28.80;;;14.38;;
54665;SDS011;40566;50.006;36.180;2023-04-24T20:26:55;26.85;;;12.88;;
54665;SDS011;40566;50.006;36.180;2023-04-24T20:31:56;22.83;;;12.77;;
54665;SDS011;40566;50.006;36.180;2023-04-24T20:36:57;24.40;;;12.27;;
54665;SDS011;40566;50.006;36.180;2023-04-24T20:41:58;26.45;;;13.20;;
54665;SDS011;40566;50.006;36.180;2023-04-24T20:46:59;22.90;;;13.20;;
54665;SDS011;40566;50.006;36.180;2023-04-24T20:51:59;25.17;;;13.05;;
54665;SDS011;40566;50.006;36.180;2023-04-24T20:57:00;30.42;;;13.30;;
54665;SDS011;40566;50.006;36.180;2023-04-24T21:02:01;24.90;;;12.57;;
54665;SDS011;40566;50.006;36.180;2023-04-24T21:07:02;23.80;;;12.65;;
54665;SDS011;40566;50.006;36.180;2023-04-24T21:12:03;27.75;;;12.95;;
54665;SDS011;40566;50.006;36.180;2023-04-24T21:17:04;21.83;;;11.40;;
54665;SDS011;40566;50.006;36.180;2023-04-24T21:22:04;23.50;;;11.93;;
54665;SDS011;40566;50.006;36.180;2023-04-24T21:27:05;23.15;;;11.73;;
54665;SDS011;40566;50.006;36.180;2023-04-24T21:32:06;20.33;;;11.52;;
54665;SDS011;40566;50.006;36.180;2023-04-24T21:37:07;22.42;;;10.90;;
54665;SDS011;40566;50.006;36.180;2023-04-24T21:42:07;23.90;;;11.48;;
54665;SDS011;40566;50.006;36.180;2023-04-24T21:47:08;22.50;;;11.55;;
54665;SDS011;40566;50.006;36.180;2023-04-24T21:52:09;20.13;;;10.50;;
54665;SDS011;40566;50.006;36.180;2023-04-24T21:57:10;22.27;;;11.55;;
54665;SDS011;40566;50.006;36.180;2023-04-24T22:02:11;20.63;;;10.98;;
54665;SDS011;40566;50.006;36.180;2023-04-24T22:07:13;19.50;;;10.50;;
54665;SDS011;40566;50.006;36.180;2023-04-24T22:12:14;18.13;;;9.52;;
54665;SDS011;40566;50.006;36.180;2023-04-24T22:17:14;20.38;;;10.50;;
54665;SDS011;40566;50.006;36.180;2023-04-24T22:22:16;19.27;;;9.45;;
54665;SDS011;40566;50.006;36.180;2023-04-24T22:27:17;18.73;;;9.50;;
54665;SDS011;40566;50.006;36.180;2023-04-24T22:32:18;17.48;;;9.90;;
54665;SDS011;40566;50.006;36.180;2023-04-24T22:37:18;18.83;;;9.52;;
54665;SDS011;40566;50.006;36.180;2023-04-24T22:42:19;18.85;;;10.13;;
54665;SDS011;40566;50.006;36.180;2023-04-24T22:47:20;17.95;;;9.57;;
54665;SDS011;40566;50.006;36.180;2023-04-24T22:52:21;18.45;;;10.02;;
54665;SDS011;40566;50.006;36.180;2023-04-24T22:57:21;17.95;;;9.75;;
54665;SDS011;40566;50.006;36.180;2023-04-24T23:02:22;18.05;;;9.60;;
54665;SDS011;40566;50.006;36.180;2023-04-24T23:07:22;17.42;;;9.13;;
54665;SDS011;40566;50.006;36.180;2023-04-24T23:12:23;16.50;;;9.15;;
54665;SDS011;40566;50.006;36.180;2023-04-24T23:17:24;18.17;;;9.82;;
54665;SDS011;40566;50.006;36.180;2023-04-24T23:22:24;20.17;;;10.05;;
54665;SDS011;40566;50.006;36.180;2023-04-24T23:27:26;21.27;;;10.05;;
54665;SDS011;40566;50.006;36.180;2023-04-24T23:32:27;19.13;;;10.57;;
54665;SDS011;40566;50.006;36.180;2023-04-24T23:37:28;22.05;;;11.00;;
54665;SDS011;40566;50.006;36.180;2023-04-24T23:42:28;20.30;;;10.88;;
54665;SDS011;40566;50.006;36.180;2023-04-24T23:47:29;17.85;;;10.38;;
54665;SDS011;40566;50.006;36.180;2023-04-24T23:52:30;20.92;;;9.95;;
54665;SDS011;40566;50.006;36.180;2023-04-24T23:57:31;19.38;;;10.20;;
